Time;durP1;ratioP1;P1;durP2;ratioP2;P2;SDS_P1;SDS_P2;PMS_P1;PMS_P2;Temp;Humidity;BMP_temperature;BMP_pressure;BME280_temperature;BME280_humidity;BME280_pressure;Samples;Min_cycle;Max_cycle;Signal;HPM_P1;HPM_P2
2023/01/06 00:00:21;;;;;;;24.60;10.85;;;10.80;99.90;;;;;;6032356;23;20662;-91
2023/01/06 00:02:47;;;;;;;30.05;10.98;;;10.80;99.90;;;;;;6054632;23;20018;-90
2023/01/06 00:05:13;;;;;;;28.27;11.05;;;10.70;99.90;;;;;;6031943;23;20018;-90
2023/01/06 00:07:39;;;;;;;29.48;11.30;;;10.80;99.90;;;;;;6029040;23;20220;-89
2023/01/06 00:10:09;;;;;;;30.55;11.18;;;10.80;99.90;;;;;;6032223;23;20122;-89
2023/01/06 00:12:35;;;;;;;30.13;10.98;;;10.80;99.90;;;;;;6030820;23;20027;-89
2023/01/06 00:15:01;;;;;;;33.38;11.60;;;10.80;99.90;;;;;;6030604;23;20022;-90
2023/01/06 00:17:26;;;;;;;30.63;12.00;;;10.80;99.90;;;;;;6054334;23;20452;-90
2023/01/06 00:19:52;;;;;;;33.20;13.02;;;10.80;99.90;;;;;;6054755;23;20031;-89
2023/01/06 00:22:18;;;;;;;29.92;11.80;;;10.80;99.90;;;;;;6029659;23;20055;-89
2023/01/06 00:24:43;;;;;;;31.63;12.02;;;10.80;99.90;;;;;;6030852;23;20014;-90
2023/01/06 00:27:09;;;;;;;27.20;13.00;;;10.70;99.90;;;;;;6029735;23;20098;-91
2023/01/06 00:29:35;;;;;;;29.73;12.38;;;10.80;99.90;;;;;;6031652;23;20078;-91
2023/01/06 00:32:01;;;;;;;31.60;12.43;;;10.70;99.90;;;;;;6029633;23;20179;-91
2023/01/06 00:34:28;;;;;;;31.58;12.57;;;10.80;99.90;;;;;;6030644;23;20019;-89
2023/01/06 00:36:54;;;;;;;29.05;11.25;;;10.80;99.90;;;;;;6053083;23;20078;-90
2023/01/06 00:39:21;;;;;;;32.25;11.93;;;10.80;99.90;;;;;;6029895;23;20021;-90
2023/01/06 00:42:05;;;;;;;28.50;11.80;;;10.80;99.90;;;;;;6030423;23;20356;-89
2023/01/06 00:44:36;;;;;;;32.63;11.57;;;10.80;99.90;;;;;;6031002;23;20011;-91
2023/01/06 00:47:03;;;;;;;29.90;11.90;;;10.80;99.90;;;;;;6029885;23;20247;-90
2023/01/06 00:49:29;;;;;;;27.52;10.50;;;10.80;99.90;;;;;;6054770;23;20029;-88
2023/01/06 00:51:55;;;;;;;30.65;11.98;;;10.80;99.90;;;;;;6029479;23;20069;-89
2023/01/06 00:54:23;;;;;;;28.60;11.65;;;10.80;99.90;;;;;;6031540;23;20445;-89
2023/01/06 00:56:51;;;;;;;26.55;11.00;;;10.80;99.90;;;;;;6054003;23;20118;-89
2023/01/06 00:59:19;;;;;;;25.00;9.98;;;10.80;99.90;;;;;;6029737;23;20040;-90
2023/01/06 01:01:46;;;;;;;25.05;9.75;;;10.80;99.90;;;;;;6052409;23;20025;-89
2023/01/06 01:04:13;;;;;;;23.13;8.77;;;10.80;99.90;;;;;;6029615;23;20097;-89
2023/01/06 01:06:41;;;;;;;24.88;9.88;;;10.80;99.90;;;;;;6028837;23;20033;-90
2023/01/06 01:09:11;;;;;;;21.63;9.27;;;10.80;99.90;;;;;;6030369;23;20030;-89
2023/01/06 01:14:21;;;;;;;20.27;8.88;;;10.80;99.90;;;;;;6077927;23;20022;-91
2023/01/06 01:16:47;;;;;;;20.23;9.10;;;10.80;99.90;;;;;;6029486;23;20021;-89
2023/01/06 01:19:13;;;;;;;23.02;9.48;;;10.80;99.90;;;;;;6030310;23;20477;-92
2023/01/06 01:21:39;;;;;;;15.60;8.75;;;10.80;99.90;;;;;;6029565;23;20025;-89
2023/01/06 01:24:05;;;;;;;22.70;8.38;;;10.70;99.90;;;;;;6053302;23;20018;-89
2023/01/06 01:26:31;;;;;;;16.92;7.05;;;10.70;99.90;;;;;;6030368;23;20429;-88
2023/01/06 01:28:57;;;;;;;15.48;6.35;;;10.70;99.90;;;;;;6030038;23;20030;-90
2023/01/06 01:31:22;;;;;;;18.27;6.47;;;10.70;99.90;;;;;;6030773;23;20485;-89
2023/01/06 01:33:51;;;;;;;11.70;6.40;;;10.70;99.90;;;;;;6055191;23;20051;-91
2023/01/06 01:36:18;;;;;;;19.27;6.97;;;10.70;99.90;;;;;;6029803;23;20262;-88
2023/01/06 01:38:44;;;;;;;13.52;6.28;;;10.70;99.90;;;;;;6029639;23;20085;-90
2023/01/06 01:41:15;;;;;;;15.57;6.45;;;10.70;99.90;;;;;;6030562;23;20023;-90
2023/01/06 01:43:46;;;;;;;9.32;6.05;;;10.70;99.90;;;;;;6054195;23;20023;-88
2023/01/06 01:46:16;;;;;;;15.48;6.80;;;10.70;99.90;;;;;;6029918;23;20018;-88
2023/01/06 01:48:42;;;;;;;12.57;6.65;;;10.70;99.90;;;;;;6031045;23;20073;-91
2023/01/06 01:51:11;;;;;;;15.15;7.75;;;10.70;99.90;;;;;;6054164;23;20015;-89
2023/01/06 01:53:43;;;;;;;12.40;6.75;;;10.70;99.90;;;;;;6054148;23;20015;-90
2023/01/06 01:56:14;;;;;;;14.45;8.60;;;10.70;99.90;;;;;;6029373;23;20460;-91
2023/01/06 01:58:47;;;;;;;14.68;8.98;;;10.60;99.90;;;;;;6030442;23;20066;-90
2023/01/06 02:01:13;;;;;;;14.68;8.60;;;10.60;99.90;;;;;;6030907;23;20030;-91
2023/01/06 02:03:42;;;;;;;13.77;8.90;;;10.60;99.90;;;;;;6029363;23;20022;-90
2023/01/06 02:06:15;;;;;;;19.05;9.13;;;10.60;99.90;;;;;;6030819;23;20113;-91
2023/01/06 02:08:48;;;;;;;17.95;9.35;;;10.60;99.90;;;;;;6029490;23;20015;-89
2023/01/06 02:11:13;;;;;;;15.23;8.23;;;10.60;99.90;;;;;;6030177;23;20047;-89
2023/01/06 02:13:41;;;;;;;15.85;8.45;;;10.60;99.90;;;;;;6054047;23;20023;-89
2023/01/06 02:16:31;;;;;;;15.35;9.05;;;10.60;99.90;;;;;;6030419;23;20455;-88
2023/01/06 02:19:12;;;;;;;13.70;8.52;;;10.60;99.90;;;;;;6032264;23;20307;-89
2023/01/06 02:21:51;;;;;;;13.00;8.43;;;10.60;99.90;;;;;;6031425;23;20101;-92
2023/01/06 02:24:17;;;;;;;17.80;8.13;;;10.60;99.90;;;;;;6055917;23;20022;-90
2023/01/06 02:27:04;;;;;;;13.57;8.43;;;10.60;99.90;;;;;;6031841;23;20383;-90
2023/01/06 02:29:54;;;;;;;15.52;8.73;;;10.60;99.90;;;;;;6032684;23;20018;-89
2023/01/06 02:32:38;;;;;;;16.92;8.10;;;10.60;99.90;;;;;;6031934;23;20027;-90
2023/01/06 02:35:07;;;;;;;14.27;7.60;;;10.60;99.90;;;;;;6032325;23;20070;-93
2023/01/06 02:37:36;;;;;;;12.20;7.88;;;10.50;99.90;;;;;;6030299;23;20445;-89
2023/01/06 02:40:38;;;;;;;13.50;7.25;;;10.50;99.90;;;;;;6032742;23;20023;-91
2023/01/06 02:43:06;;;;;;;15.35;7.95;;;10.50;99.90;;;;;;6031877;23;20019;-91
2023/01/06 02:45:52;;;;;;;12.55;7.18;;;10.50;99.90;;;;;;6056212;23;20010;-90
2023/01/06 02:48:25;;;;;;;14.18;6.93;;;10.50;99.90;;;;;;6031533;23;20397;-91
2023/01/06 02:51:12;;;;;;;14.27;6.95;;;10.50;99.90;;;;;;6031731;23;20018;-88
2023/01/06 02:53:57;;;;;;;13.38;6.53;;;10.50;99.90;;;;;;6031706;23;20438;-90
2023/01/06 02:56:29;;;;;;;10.85;6.57;;;10.50;99.90;;;;;;6055291;23;20542;-89
2023/01/06 02:59:01;;;;;;;11.75;6.05;;;10.50;99.90;;;;;;6031643;23;20022;-90
2023/01/06 03:01:32;;;;;;;13.20;5.85;;;10.40;99.90;;;;;;6055300;23;20098;-90
2023/01/06 03:04:03;;;;;;;11.75;5.55;;;10.40;99.90;;;;;;6030717;23;20022;-89
2023/01/06 03:06:31;;;;;;;9.80;5.93;;;10.40;99.90;;;;;;6031417;23;20119;-89
2023/01/06 03:08:59;;;;;;;10.63;5.50;;;10.40;99.90;;;;;;6031098;23;20098;-90
2023/01/06 03:11:30;;;;;;;12.13;6.10;;;10.40;99.90;;;;;;6031532;23;20015;-90
2023/01/06 03:14:09;;;;;;;10.45;5.90;;;10.40;99.90;;;;;;6032422;23;20021;-90
2023/01/06 03:16:34;;;;;;;9.98;5.68;;;10.40;99.90;;;;;;6030660;23;20142;-89
2023/01/06 03:19:02;;;;;;;13.57;6.53;;;10.40;99.90;;;;;;6032222;23;20027;-90
2023/01/06 03:21:35;;;;;;;12.30;6.43;;;10.40;99.90;;;;;;6055230;23;20026;-88
2023/01/06 03:24:04;;;;;;;11.20;5.97;;;10.40;99.90;;;;;;6031278;23;20018;-90
2023/01/06 03:26:30;;;;;;;17.92;7.03;;;10.40;99.90;;;;;;6032075;23;20026;-88
2023/01/06 03:28:56;;;;;;;11.02;6.57;;;10.40;99.90;;;;;;6055938;23;20011;-90
2023/01/06 03:31:35;;;;;;;12.38;6.70;;;10.40;99.90;;;;;;6031638;23;20150;-90
2023/01/06 03:34:15;;;;;;;10.73;6.68;;;10.40;99.90;;;;;;6029578;23;20019;-91
2023/01/06 03:37:06;;;;;;;12.90;6.45;;;10.40;99.90;;;;;;6029948;23;20475;-89
2023/01/06 03:40:09;;;;;;;10.00;6.72;;;10.40;99.90;;;;;;6032050;23;20045;-89
2023/01/06 03:45:36;;;;;;;9.43;6.50;;;10.40;99.90;;;;;;6080060;23;20026;-90
2023/01/06 03:48:01;;;;;;;12.13;6.78;;;10.40;99.90;;;;;;6030372;23;20254;-89
2023/01/06 03:50:54;;;;;;;12.07;7.93;;;10.30;99.90;;;;;;6055829;23;20072;-89
2023/01/06 03:53:45;;;;;;;9.45;7.13;;;10.30;99.90;;;;;;6019652;23;20409;-89
2023/01/06 03:56:32;;;;;;;9.88;6.55;;;10.40;99.90;;;;;;6055624;23;20389;-91
2023/01/06 03:59:04;;;;;;;11.95;7.90;;;10.40;99.90;;;;;;6055405;23;20429;-89
2023/01/06 04:01:30;;;;;;;12.30;7.70;;;10.40;99.90;;;;;;6031551;23;20034;-89
2023/01/06 04:03:56;;;;;;;11.90;7.80;;;10.40;99.90;;;;;;6030761;23;20243;-88
2023/01/06 04:06:22;;;;;;;10.50;7.78;;;10.40;99.90;;;;;;6031374;23;20097;-89
2023/01/06 04:08:47;;;;;;;11.18;7.47;;;10.40;99.90;;;;;;6030323;23;20021;-89
2023/01/06 04:13:57;;;;;;;11.38;7.10;;;10.40;99.90;;;;;;6079207;23;20090;-89
2023/01/06 04:16:23;;;;;;;8.40;7.00;;;10.40;99.90;;;;;;6030723;23;20022;-89
2023/01/06 04:18:49;;;;;;;10.23;7.32;;;10.30;99.90;;;;;;6031587;23;20027;-89
2023/01/06 04:21:15;;;;;;;9.23;6.28;;;10.30;99.90;;;;;;6030487;23;20022;-89
2023/01/06 04:23:43;;;;;;;11.38;7.10;;;10.40;99.90;;;;;;6030007;23;20360;-90
2023/01/06 04:26:09;;;;;;;11.82;6.47;;;10.40;99.90;;;;;;6055228;23;20015;-91
2023/01/06 04:28:34;;;;;;;12.68;7.68;;;10.30;99.90;;;;;;6031622;23;20610;-90
2023/01/06 04:31:01;;;;;;;12.20;7.22;;;10.30;99.90;;;;;;6031728;23;20046;-89
2023/01/06 04:33:27;;;;;;;11.45;6.32;;;10.30;99.90;;;;;;6055215;23;20018;-91
2023/01/06 04:35:53;;;;;;;10.60;7.38;;;10.30;99.90;;;;;;6054825;23;20045;-89
2023/01/06 04:38:19;;;;;;;12.43;6.65;;;10.30;99.90;;;;;;6028835;23;20444;-90
2023/01/06 04:40:47;;;;;;;8.05;5.85;;;10.30;99.90;;;;;;6030873;23;20077;-90
2023/01/06 04:43:15;;;;;;;6.97;5.47;;;10.30;99.90;;;;;;6030505;23;20361;-89
2023/01/06 04:45:42;;;;;;;11.10;5.45;;;10.40;99.90;;;;;;6031135;23;20030;-89
2023/01/06 04:48:11;;;;;;;8.60;5.88;;;10.40;99.90;;;;;;6030534;23;20011;-90
2023/01/06 04:50:40;;;;;;;8.30;5.25;;;10.40;99.90;;;;;;6030769;23;20301;-88
2023/01/06 04:53:06;;;;;;;9.88;4.80;;;10.30;99.90;;;;;;6052587;23;20018;-90
2023/01/06 04:55:32;;;;;;;5.65;4.40;;;10.40;99.90;;;;;;6031257;23;20161;-89
2023/01/06 04:57:57;;;;;;;6.38;4.55;;;10.40;99.90;;;;;;6054019;23;20119;-91
2023/01/06 05:00:24;;;;;;;7.50;4.60;;;10.30;99.90;;;;;;6031011;23;20023;-89
2023/01/06 05:02:50;;;;;;;7.40;4.35;;;10.30;99.90;;;;;;6029416;23;20240;-89
2023/01/06 05:05:16;;;;;;;6.95;4.40;;;10.30;99.90;;;;;;6031058;23;20019;-89
2023/01/06 05:07:42;;;;;;;6.13;4.20;;;10.30;99.90;;;;;;6028453;23;20050;-89
2023/01/06 05:10:09;;;;;;;7.32;4.43;;;10.40;99.90;;;;;;6031128;23;20018;-89
2023/01/06 05:12:35;;;;;;;6.82;4.20;;;10.40;99.90;;;;;;6030830;23;20023;-89
2023/01/06 05:15:01;;;;;;;6.22;4.13;;;10.40;99.90;;;;;;6054898;23;20021;-89
2023/01/06 05:17:27;;;;;;;5.82;4.20;;;10.40;99.90;;;;;;6030150;23;20097;-88
2023/01/06 05:19:53;;;;;;;8.65;4.32;;;10.40;99.90;;;;;;6030541;23;20130;-90
2023/01/06 05:22:19;;;;;;;7.00;4.40;;;10.40;99.90;;;;;;6053357;23;20030;-89
2023/01/06 05:24:48;;;;;;;8.05;4.82;;;10.40;99.90;;;;;;6055273;23;20011;-89
2023/01/06 05:27:13;;;;;;;7.57;5.10;;;10.40;99.90;;;;;;6054004;23;20018;-90
2023/01/06 05:29:39;;;;;;;8.13;5.93;;;10.40;99.90;;;;;;6031449;23;20478;-90
2023/01/06 05:32:05;;;;;;;10.10;6.00;;;10.50;99.90;;;;;;6030243;23;20057;-88
2023/01/06 05:34:31;;;;;;;8.38;6.88;;;10.40;99.90;;;;;;6054574;23;20022;-89
2023/01/06 05:36:57;;;;;;;9.57;6.43;;;10.40;99.90;;;;;;6030082;23;20205;-88
2023/01/06 05:39:23;;;;;;;9.20;7.40;;;10.40;99.90;;;;;;6030359;23;20042;-89
2023/01/06 05:41:52;;;;;;;10.60;7.20;;;10.40;99.90;;;;;;6029587;23;20046;-92
2023/01/06 05:44:17;;;;;;;9.68;7.32;;;10.40;99.90;;;;;;6030456;23;20040;-89
2023/01/06 05:46:43;;;;;;;11.45;7.20;;;10.40;99.90;;;;;;6029028;23;20159;-90
2023/01/06 05:49:08;;;;;;;10.63;7.00;;;10.40;99.90;;;;;;6031176;23;20161;-90
2023/01/06 05:51:34;;;;;;;12.27;6.95;;;10.30;99.90;;;;;;6031482;23;20015;-89
2023/01/06 05:54:00;;;;;;;10.50;7.30;;;10.40;99.90;;;;;;6030916;23;20026;-89
2023/01/06 05:56:25;;;;;;;11.27;6.85;;;10.30;99.90;;;;;;6032557;23;20014;-88
2023/01/06 05:58:52;;;;;;;8.20;7.05;;;10.30;99.90;;;;;;6032708;23;20098;-88
2023/01/06 06:01:26;;;;;;;9.43;7.05;;;10.30;99.90;;;;;;6031296;23;20027;-90
2023/01/06 06:03:53;;;;;;;8.77;7.40;;;10.30;99.90;;;;;;6032163;23;20019;-90
2023/01/06 06:06:21;;;;;;;7.82;7.03;;;10.20;99.90;;;;;;6031916;23;20011;-90
2023/01/06 06:08:47;;;;;;;8.68;7.55;;;10.20;99.90;;;;;;6055716;23;20015;-90
2023/01/06 06:11:14;;;;;;;10.57;7.40;;;10.20;99.90;;;;;;6032276;23;20230;-91
2023/01/06 06:13:51;;;;;;;9.73;7.47;;;10.20;99.90;;;;;;6032784;23;20053;-89
2023/01/06 06:16:19;;;;;;;9.02;7.28;;;10.20;99.90;;;;;;6031465;23;20087;-89
2023/01/06 06:18:49;;;;;;;11.20;7.43;;;10.20;99.90;;;;;;6030926;23;20268;-91
2023/01/06 06:21:17;;;;;;;9.30;7.40;;;10.20;99.90;;;;;;6031252;23;20041;-90
2023/01/06 06:23:43;;;;;;;9.98;7.60;;;10.20;99.90;;;;;;6030334;23;20252;-89
2023/01/06 06:26:09;;;;;;;9.45;7.88;;;10.20;99.90;;;;;;6031737;23;20019;-89
2023/01/06 06:28:36;;;;;;;10.38;8.05;;;10.20;99.90;;;;;;6056184;23;20075;-90
2023/01/06 06:31:11;;;;;;;9.93;7.97;;;10.20;99.90;;;;;;6031699;23;20015;-89
2023/01/06 06:33:36;;;;;;;10.48;7.85;;;10.20;99.90;;;;;;6031854;23;20021;-90
2023/01/06 06:36:03;;;;;;;9.43;7.50;;;10.20;99.90;;;;;;6032414;23;20054;-89
2023/01/06 06:38:29;;;;;;;9.48;7.82;;;10.10;99.90;;;;;;6029298;23;20021;-91
2023/01/06 06:40:54;;;;;;;10.38;7.90;;;10.20;99.90;;;;;;6031676;23;20097;-89
2023/01/06 06:43:20;;;;;;;12.82;8.85;;;10.10;99.90;;;;;;6029367;23;20101;-90
2023/01/06 06:45:47;;;;;;;11.73;8.40;;;10.20;99.90;;;;;;6030788;23;20015;-90
2023/01/06 06:48:16;;;;;;;10.50;8.68;;;10.20;99.90;;;;;;6030643;23;20401;-91
2023/01/06 06:50:42;;;;;;;10.15;8.68;;;10.20;99.90;;;;;;6031340;23;20033;-90
2023/01/06 06:53:07;;;;;;;12.38;8.85;;;10.20;99.90;;;;;;6029631;23;20473;-90
2023/01/06 06:55:33;;;;;;;11.10;8.70;;;10.20;99.90;;;;;;6031515;23;20026;-88
2023/01/06 06:57:59;;;;;;;11.25;9.73;;;10.10;99.90;;;;;;6030938;23;20424;-90
2023/01/06 07:00:25;;;;;;;11.55;9.00;;;10.20;99.90;;;;;;6032294;23;20015;-89
2023/01/06 07:02:50;;;;;;;10.85;8.63;;;10.20;99.90;;;;;;6053455;23;20026;-90
2023/01/06 07:05:20;;;;;;;10.00;8.48;;;10.20;99.90;;;;;;6056006;23;20054;-89
2023/01/06 07:07:45;;;;;;;11.93;8.68;;;10.20;99.90;;;;;;6029455;23;20019;-91
2023/01/06 07:10:15;;;;;;;11.23;7.82;;;10.20;99.90;;;;;;6031797;23;20102;-90
2023/01/06 07:12:41;;;;;;;9.40;7.78;;;10.20;99.90;;;;;;6055734;23;20094;-90
2023/01/06 07:15:07;;;;;;;7.85;6.55;;;10.20;99.90;;;;;;6032347;23;20057;-88
2023/01/06 07:17:36;;;;;;;9.40;6.88;;;10.20;99.90;;;;;;6030381;23;20030;-90
2023/01/06 07:20:02;;;;;;;9.23;7.22;;;10.20;99.90;;;;;;6031317;23;20055;-89
2023/01/06 07:22:28;;;;;;;9.05;7.15;;;10.10;99.90;;;;;;6053689;23;20199;-89
2023/01/06 07:24:53;;;;;;;8.38;6.90;;;10.20;99.90;;;;;;6031741;23;20179;-88
2023/01/06 07:27:19;;;;;;;6.82;6.13;;;10.20;99.90;;;;;;6031246;23;20047;-89
2023/01/06 07:29:45;;;;;;;8.80;6.13;;;10.20;99.90;;;;;;6055848;23;20018;-89
2023/01/06 07:32:10;;;;;;;7.78;6.28;;;10.20;99.90;;;;;;6031100;23;20079;-91
2023/01/06 07:34:36;;;;;;;7.75;6.45;;;10.20;99.90;;;;;;6030981;23;20011;-88
2023/01/06 07:37:02;;;;;;;6.05;5.45;;;10.20;99.90;;;;;;6029863;23;20019;-90
2023/01/06 07:39:30;;;;;;;4.80;3.90;;;10.20;99.90;;;;;;6054740;23;20023;-91
2023/01/06 07:41:56;;;;;;;5.70;4.63;;;10.30;99.90;;;;;;6030851;23;20019;-92
2023/01/06 07:44:21;;;;;;;4.28;3.80;;;10.30;99.90;;;;;;6031709;23;20484;-89
2023/01/06 07:46:47;;;;;;;4.15;3.30;;;10.30;99.90;;;;;;6054334;23;20015;-90
2023/01/06 07:49:13;;;;;;;4.30;3.40;;;10.40;99.90;;;;;;6032938;23;20011;-88
2023/01/06 07:51:38;;;;;;;4.05;2.63;;;10.30;99.90;;;;;;6030097;23;20019;-90
2023/01/06 07:54:04;;;;;;;3.30;2.83;;;10.40;99.90;;;;;;6030081;23;20015;-90
2023/01/06 07:56:35;;;;;;;2.53;2.10;;;10.30;99.90;;;;;;6031712;23;20023;-90
2023/01/06 07:59:00;;;;;;;3.88;2.20;;;10.30;99.90;;;;;;6031693;23;20026;-89
2023/01/06 08:01:26;;;;;;;5.85;2.40;;;10.20;99.90;;;;;;6030861;23;20019;-89
2023/01/06 08:03:52;;;;;;;6.28;2.50;;;10.20;99.90;;;;;;6054602;23;20399;-88
2023/01/06 08:06:17;;;;;;;2.42;1.60;;;10.00;99.90;;;;;;6030568;23;20074;-90
2023/01/06 08:08:43;;;;;;;2.55;1.80;;;9.90;99.90;;;;;;6053819;23;20042;-89
2023/01/06 08:11:11;;;;;;;5.10;1.40;;;9.80;99.90;;;;;;6032751;23;20362;-90
2023/01/06 08:13:37;;;;;;;4.55;1.50;;;9.70;99.90;;;;;;6031051;23;20022;-89
2023/01/06 08:16:07;;;;;;;2.95;1.20;;;9.70;99.90;;;;;;6031338;23;20241;-90
2023/01/06 08:18:33;;;;;;;2.10;1.30;;;9.50;99.90;;;;;;6031092;23;20026;-90
2023/01/06 08:21:03;;;;;;;4.00;1.40;;;9.50;99.90;;;;;;6030437;23;20026;-90
2023/01/06 08:23:30;;;;;;;4.75;1.17;;;9.50;99.90;;;;;;6027201;23;20265;-91
2023/01/06 08:26:13;;;;;;;3.67;1.33;;;9.30;99.90;;;;;;6053484;23;20074;-89
2023/01/06 08:28:40;;;;;;;3.67;1.27;;;9.30;99.90;;;;;;6054279;23;20444;-90
2023/01/06 08:31:15;;;;;;;3.72;1.05;;;9.20;99.90;;;;;;6031005;23;20215;-91
2023/01/06 08:33:41;;;;;;;4.15;1.10;;;9.20;99.90;;;;;;6030708;23;20022;-88
2023/01/06 08:36:10;;;;;;;2.67;0.90;;;9.00;99.90;;;;;;6030860;23;20061;-89
2023/01/06 08:38:36;;;;;;;3.08;1.00;;;9.00;99.90;;;;;;6052019;23;20074;-89
2023/01/06 08:41:02;;;;;;;3.90;1.00;;;8.90;99.90;;;;;;5970228;23;20042;-90
2023/01/06 08:43:31;;;;;;;3.75;0.90;;;8.90;99.90;;;;;;6053700;23;20015;-90
2023/01/06 08:46:02;;;;;;;4.75;1.27;;;8.80;99.90;;;;;;6028943;23;20011;-89
2023/01/06 08:48:28;;;;;;;3.30;0.90;;;8.80;99.90;;;;;;6029939;23;20098;-88
2023/01/06 08:50:55;;;;;;;4.25;1.08;;;8.80;99.90;;;;;;6028689;23;20050;-89
2023/01/06 08:53:21;;;;;;;7.50;1.00;;;8.80;99.90;;;;;;6027620;23;20351;-88
2023/01/06 08:55:47;;;;;;;3.47;0.70;;;8.80;99.90;;;;;;6030290;23;20021;-91
2023/01/06 08:58:13;;;;;;;5.47;1.00;;;8.80;99.90;;;;;;6052928;23;20403;-89
2023/01/06 09:00:40;;;;;;;5.32;1.40;;;8.70;99.90;;;;;;6047476;23;20473;-90
2023/01/06 09:03:06;;;;;;;6.53;1.73;;;8.70;99.90;;;;;;6026620;23;20025;-89
2023/01/06 09:05:34;;;;;;;6.78;1.20;;;8.70;99.90;;;;;;6054139;23;20019;-89
2023/01/06 09:07:59;;;;;;;7.03;1.20;;;8.70;99.90;;;;;;6029436;23;20256;-89
2023/01/06 09:10:25;;;;;;;4.55;1.42;;;8.70;99.90;;;;;;6054346;23;20105;-89
2023/01/06 09:12:51;;;;;;;9.80;1.38;;;8.70;99.90;;;;;;6054086;23;20015;-89
2023/01/06 09:15:17;;;;;;;5.40;1.30;;;8.70;99.90;;;;;;6054529;23;20436;-90
2023/01/06 09:17:42;;;;;;;10.80;1.60;;;8.70;99.90;;;;;;6029082;23;20415;-90
2023/01/06 09:20:09;;;;;;;8.60;1.50;;;8.80;99.90;;;;;;6031096;23;20054;-90
2023/01/06 09:22:35;;;;;;;10.95;1.60;;;8.80;99.90;;;;;;6050916;23;20102;-90
2023/01/06 09:25:04;;;;;;;7.13;1.50;;;8.80;99.90;;;;;;6030690;23;20046;-90
2023/01/06 09:27:30;;;;;;;9.40;1.38;;;8.80;99.90;;;;;;6030174;23;20019;-89
2023/01/06 09:29:56;;;;;;;8.43;1.30;;;8.80;99.90;;;;;;6025508;23;20046;-89
2023/01/06 09:32:21;;;;;;;10.88;1.48;;;8.80;99.90;;;;;;6028096;23;20015;-89
2023/01/06 09:34:47;;;;;;;9.43;1.55;;;8.80;99.90;;;;;;6027753;23;20371;-88
2023/01/06 09:37:13;;;;;;;10.57;1.67;;;8.90;99.90;;;;;;6026715;23;20532;-89
2023/01/06 09:39:38;;;;;;;9.20;1.65;;;8.80;99.90;;;;;;6029703;23;20456;-90
2023/01/06 09:42:19;;;;;;;13.20;1.60;;;8.80;99.90;;;;;;6026266;23;20037;-89
2023/01/06 09:44:57;;;;;;;13.98;2.20;;;8.80;99.90;;;;;;6028484;23;20019;-88
2023/01/06 09:47:31;;;;;;;9.93;2.03;;;8.90;99.90;;;;;;6028174;23;20018;-89
2023/01/06 09:50:20;;;;;;;8.83;1.70;;;8.90;99.90;;;;;;6029737;23;20064;-88
2023/01/06 09:52:51;;;;;;;15.52;2.60;;;8.90;99.90;;;;;;6028014;23;20156;-89
2023/01/06 09:55:34;;;;;;;5.75;1.27;;;8.90;99.90;;;;;;6054393;23;20023;-90
2023/01/06 09:58:16;;;;;;;6.25;1.52;;;9.00;99.90;;;;;;6029906;23;20015;-89
2023/01/06 10:00:50;;;;;;;12.10;2.22;;;9.00;99.90;;;;;;6029942;23;20402;-91
2023/01/06 10:03:26;;;;;;;7.65;1.70;;;9.00;99.90;;;;;;6029989;23;20078;-89
2023/01/06 10:06:32;;;;;;;8.32;1.77;;;9.10;99.90;;;;;;6030721;23;20019;-88
2023/01/06 10:09:07;;;;;;;9.27;1.67;;;9.10;99.90;;;;;;5970973;23;20408;-91
2023/01/06 10:11:50;;;;;;;10.02;1.80;;;9.10;99.90;;;;;;6068261;23;20050;-90
2023/01/06 10:14:22;;;;;;;13.20;2.22;;;9.10;99.90;;;;;;6054516;23;20014;-90
2023/01/06 10:17:20;;;;;;;8.18;1.80;;;9.20;99.90;;;;;;6053860;23;20030;-88
2023/01/06 10:19:59;;;;;;;11.27;1.67;;;9.20;99.90;;;;;;6030402;23;20030;-88
2023/01/06 10:22:43;;;;;;;9.07;1.70;;;9.20;99.90;;;;;;6028203;23;20513;-91
2023/01/06 10:25:17;;;;;;;6.88;1.33;;;9.30;99.90;;;;;;6028981;23;20034;-90
2023/01/06 10:27:55;;;;;;;7.53;1.63;;;9.30;99.90;;;;;;6053865;23;20086;-89
2023/01/06 10:30:46;;;;;;;8.57;2.22;;;9.30;99.90;;;;;;6029843;23;20014;-90
2023/01/06 10:33:22;;;;;;;11.43;1.60;;;9.40;99.90;;;;;;6029408;23;20444;-88
2023/01/06 10:35:49;;;;;;;14.95;2.30;;;9.40;99.90;;;;;;6029987;23;20023;-90
2023/01/06 10:38:15;;;;;;;10.65;1.70;;;9.50;99.90;;;;;;6029882;23;20014;-88
2023/01/06 10:40:41;;;;;;;7.38;1.42;;;9.40;99.90;;;;;;6055154;23;20023;-89
2023/01/06 10:43:11;;;;;;;10.40;1.83;;;9.50;99.90;;;;;;6054514;23;20019;-88
2023/01/06 10:45:45;;;;;;;8.15;1.70;;;9.50;99.90;;;;;;6031245;23;20038;-89
2023/01/06 10:48:18;;;;;;;8.90;2.05;;;9.50;99.90;;;;;;6055467;23;20015;-89
2023/01/06 10:50:44;;;;;;;11.00;1.50;;;9.40;99.90;;;;;;6032022;23;20478;-89
2023/01/06 10:53:11;;;;;;;11.45;2.00;;;9.50;99.90;;;;;;6029525;23;20333;-88
2023/01/06 10:55:52;;;;;;;10.73;1.85;;;9.50;99.90;;;;;;6054616;23;20479;-89
2023/01/06 10:58:47;;;;;;;7.93;1.58;;;9.50;99.90;;;;;;6055613;23;20019;-90
2023/01/06 11:01:15;;;;;;;6.73;1.63;;;9.60;99.90;;;;;;6029187;23;20371;-89
2023/01/06 11:03:46;;;;;;;8.85;1.42;;;9.60;99.90;;;;;;6030937;23;20026;-90
2023/01/06 11:06:27;;;;;;;11.55;1.80;;;9.60;99.90;;;;;;6031099;23;20018;-87
2023/01/06 11:08:54;;;;;;;8.35;1.95;;;9.60;99.90;;;;;;6030913;23;20050;-88
2023/01/06 11:11:20;;;;;;;10.40;2.67;;;9.60;99.90;;;;;;6031893;23;20011;-90
2023/01/06 11:13:53;;;;;;;6.88;1.77;;;9.70;99.90;;;;;;6031933;23;20014;-90
2023/01/06 11:16:29;;;;;;;8.82;1.65;;;9.80;99.90;;;;;;6031353;23;20236;-90
2023/01/06 11:19:02;;;;;;;10.05;2.00;;;9.80;99.90;;;;;;6032162;23;20026;-90
2023/01/06 11:21:48;;;;;;;7.15;1.88;;;9.80;99.90;;;;;;6030112;23;20023;-91
2023/01/06 11:24:28;;;;;;;9.80;1.70;;;9.80;99.90;;;;;;6024479;23;20023;-90
2023/01/06 11:26:59;;;;;;;10.10;1.80;;;10.00;99.90;;;;;;6030104;23;20110;-90
2023/01/06 11:29:33;;;;;;;13.13;2.25;;;10.10;99.90;;;;;;6031163;23;20086;-89
2023/01/06 11:32:18;;;;;;;10.93;1.90;;;10.10;99.90;;;;;;4988984;23;10000939;-89
2023/01/06 11:35:01;;;;;;;8.48;1.80;;;10.10;99.90;;;;;;6030303;23;20011;-90
2023/01/06 11:37:40;;;;;;;9.20;1.80;;;10.10;99.90;;;;;;6054377;23;20036;-88
2023/01/06 11:40:36;;;;;;;10.13;1.95;;;10.10;99.90;;;;;;6032930;23;20345;-89
2023/01/06 11:43:24;;;;;;;9.35;2.00;;;10.10;99.90;;;;;;6030746;23;20018;-89
2023/01/06 11:46:02;;;;;;;8.40;1.45;;;10.20;99.90;;;;;;6030678;23;20015;-88
2023/01/06 11:48:36;;;;;;;10.02;2.33;;;10.00;99.90;;;;;;6032039;23;20279;-88
2023/01/06 11:51:04;;;;;;;11.55;1.77;;;10.10;99.90;;;;;;6054717;23;20022;-88
2023/01/06 11:53:30;;;;;;;9.90;1.58;;;10.10;99.90;;;;;;6029359;23;20022;-89
2023/01/06 11:55:58;;;;;;;7.22;1.33;;;10.10;99.90;;;;;;6055460;23;20042;-90
2023/01/06 11:58:56;;;;;;;7.47;1.67;;;10.00;99.90;;;;;;6055443;23;20457;-88
2023/01/06 12:01:49;;;;;;;8.13;1.38;;;10.10;99.90;;;;;;6055125;23;20102;-89
2023/01/06 12:04:32;;;;;;;5.93;1.75;;;10.10;99.90;;;;;;6021961;23;20033;-88
2023/01/06 12:07:54;;;;;;;4.57;1.60;;;10.20;99.90;;;;;;6053170;23;20457;-88
2023/01/06 12:10:30;;;;;;;5.78;1.65;;;10.10;99.90;;;;;;6003227;23;20162;-88
2023/01/06 12:12:56;;;;;;;11.23;1.88;;;10.10;99.90;;;;;;6030584;23;20176;-88
2023/01/06 12:15:23;;;;;;;10.02;2.85;;;10.10;99.90;;;;;;6055427;23;20197;-89
2023/01/06 12:17:59;;;;;;;6.68;1.60;;;10.20;99.90;;;;;;6053465;23;20029;-88
2023/01/06 12:20:32;;;;;;;12.88;2.55;;;10.20;99.90;;;;;;6030933;23;20097;-89
2023/01/06 12:23:00;;;;;;;12.15;2.10;;;10.20;99.90;;;;;;6028441;23;20310;-90
2023/01/06 12:25:44;;;;;;;7.80;2.42;;;10.10;99.90;;;;;;6031087;23;20325;-90
2023/01/06 12:28:15;;;;;;;10.45;1.75;;;10.10;99.90;;;;;;6029446;23;20014;-89
2023/01/06 12:30:49;;;;;;;8.45;1.70;;;10.10;99.90;;;;;;6030076;23;20479;-90
2023/01/06 12:33:46;;;;;;;9.23;1.80;;;10.00;99.90;;;;;;6029955;23;20031;-88
2023/01/06 12:36:34;;;;;;;11.55;1.98;;;10.10;99.90;;;;;;6054691;23;20054;-89
2023/01/06 12:39:24;;;;;;;8.57;1.65;;;10.00;99.90;;;;;;6028975;23;20021;-90
2023/01/06 12:41:59;;;;;;;10.43;1.90;;;10.00;99.90;;;;;;6029095;23;20023;-89
2023/01/06 12:45:11;;;;;;;11.25;1.90;;;10.00;99.90;;;;;;6054076;23;20393;-89
2023/01/06 12:47:43;;;;;;;8.27;1.70;;;9.90;99.90;;;;;;6029881;23;20021;-89
2023/01/06 12:50:31;;;;;;;10.85;2.00;;;9.90;99.90;;;;;;6031410;23;20018;-88
2023/01/06 12:53:12;;;;;;;9.35;2.17;;;9.80;99.90;;;;;;6053027;23;20083;-89
2023/01/06 12:55:52;;;;;;;8.50;1.77;;;9.90;99.90;;;;;;6030964;23;20435;-89
2023/01/06 12:58:51;;;;;;;6.00;1.90;;;9.90;99.90;;;;;;6031354;23;20014;-89
2023/01/06 13:01:24;;;;;;;7.57;1.70;;;10.00;99.90;;;;;;6054924;23;20353;-89
2023/01/06 13:04:33;;;;;;;9.30;2.25;;;9.90;99.90;;;;;;6054994;23;20022;-89
2023/01/06 13:07:32;;;;;;;8.95;1.98;;;9.90;99.90;;;;;;6030303;23;20015;-88
2023/01/06 13:10:24;;;;;;;15.48;2.42;;;9.90;99.90;;;;;;6055244;23;20062;-89
2023/01/06 13:13:17;;;;;;;9.93;1.73;;;9.80;99.90;;;;;;6027992;23;20350;-91